Time;durP1;ratioP1;P1;durP2;ratioP2;P2;SDS_P1;SDS_P2;PMS_P1;PMS_P2;Temp;Humidity;BMP_temperature;BMP_pressure;BME280_temperature;BME280_humidity;BME280_pressure;Samples;Min_cycle;Max_cycle;Signal;HPM_P1;HPM_P2
2022/12/20 00:00:44;;;;;;;49.70;28.98;;;3.50;99.90;;;;;;5015647;28;20030;-50
2022/12/20 00:03:10;;;;;;;44.13;27.23;;;3.50;99.90;;;;;;5015408;28;20512;-52
2022/12/20 00:05:38;;;;;;;47.17;28.17;;;3.50;99.90;;;;;;5015388;28;20034;-53
2022/12/20 00:08:04;;;;;;;51.05;30.60;;;3.50;99.90;;;;;;5015301;28;20030;-52
2022/12/20 00:10:29;;;;;;;45.25;28.95;;;3.50;99.90;;;;;;5013336;28;20511;-51
2022/12/20 00:12:55;;;;;;;47.90;29.15;;;3.60;99.90;;;;;;5013112;28;20037;-48
2022/12/20 00:15:21;;;;;;;50.10;31.17;;;3.50;99.90;;;;;;5014419;28;20041;-57
2022/12/20 00:17:46;;;;;;;56.22;32.65;;;3.50;99.90;;;;;;5014515;28;20029;-57
2022/12/20 00:20:12;;;;;;;52.35;30.73;;;3.50;99.90;;;;;;5012744;28;20026;-54
2022/12/20 00:22:38;;;;;;;51.42;31.70;;;3.50;99.90;;;;;;5013564;28;20029;-49
2022/12/20 00:25:04;;;;;;;49.45;31.77;;;3.50;99.90;;;;;;5011895;28;20113;-45
2022/12/20 00:27:30;;;;;;;50.97;30.67;;;3.50;99.90;;;;;;4996011;28;20371;-51
2022/12/20 00:29:56;;;;;;;52.47;32.17;;;3.50;99.90;;;;;;5014063;28;20026;-53
2022/12/20 00:32:21;;;;;;;50.92;32.35;;;3.50;99.90;;;;;;4991927;28;20037;-52
2022/12/20 00:34:47;;;;;;;55.72;33.30;;;3.50;99.90;;;;;;5017048;28;20026;-52
2022/12/20 00:37:13;;;;;;;52.95;32.42;;;3.50;99.90;;;;;;5010790;28;20056;-53
2022/12/20 00:39:39;;;;;;;56.25;33.78;;;3.50;99.90;;;;;;5014570;28;20033;-52
2022/12/20 00:42:05;;;;;;;55.65;34.80;;;3.50;99.90;;;;;;5007027;28;20121;-54
2022/12/20 00:44:30;;;;;;;55.22;33.95;;;3.50;99.90;;;;;;5026741;28;20029;-52
2022/12/20 00:46:56;;;;;;;58.17;36.50;;;3.40;99.90;;;;;;5014139;28;20033;-53
2022/12/20 00:49:22;;;;;;;65.82;40.40;;;3.50;99.90;;;;;;5014470;28;20527;-52
2022/12/20 00:51:47;;;;;;;63.13;37.65;;;3.50;99.90;;;;;;5028003;28;20026;-52
2022/12/20 00:54:13;;;;;;;67.97;41.20;;;3.90;99.90;;;;;;5013945;28;20030;-52
2022/12/20 00:56:39;;;;;;;63.25;36.78;;;3.40;99.90;;;;;;5014234;28;20026;-52
2022/12/20 00:59:05;;;;;;;69.43;41.17;;;3.40;99.90;;;;;;5011736;28;20040;-52
2022/12/20 01:01:33;;;;;;;66.53;40.47;;;3.40;99.90;;;;;;5011775;28;20040;-52
2022/12/20 01:03:59;;;;;;;63.85;40.08;;;3.40;99.90;;;;;;5014267;28;20041;-52
2022/12/20 01:06:26;;;;;;;63.72;40.28;;;3.40;99.90;;;;;;5014107;28;20061;-52
2022/12/20 01:08:53;;;;;;;70.32;41.47;;;3.40;99.90;;;;;;5014492;28;20034;-51
2022/12/20 01:11:25;;;;;;;64.85;40.40;;;3.40;99.90;;;;;;5014056;28;20037;-51
2022/12/20 01:13:53;;;;;;;65.25;39.90;;;3.30;99.90;;;;;;5014306;28;20034;-52
2022/12/20 01:16:28;;;;;;;65.18;40.35;;;3.40;99.90;;;;;;5014269;28;20030;-51
2022/12/20 01:18:54;;;;;;;69.10;41.88;;;3.40;99.90;;;;;;4996019;28;20068;-52
2022/12/20 01:21:23;;;;;;;72.68;40.90;;;3.40;99.90;;;;;;5012115;28;20074;-51
2022/12/20 01:23:49;;;;;;;68.88;40.58;;;3.30;99.90;;;;;;5014236;28;20473;-52
2022/12/20 01:26:17;;;;;;;69.82;43.90;;;3.40;99.90;;;;;;5014032;28;20029;-51
2022/12/20 01:28:45;;;;;;;68.53;42.65;;;3.40;99.90;;;;;;5013931;28;20037;-51
2022/12/20 01:31:15;;;;;;;73.22;45.35;;;3.30;99.90;;;;;;5009587;28;20042;-51
2022/12/20 01:33:41;;;;;;;78.55;45.05;;;3.20;99.90;;;;;;5014016;28;20060;-51
2022/12/20 01:36:13;;;;;;;70.97;43.08;;;3.10;99.90;;;;;;5013876;28;20030;-52
2022/12/20 01:38:38;;;;;;;74.53;44.55;;;3.10;99.90;;;;;;5013883;28;20026;-52
2022/12/20 01:41:04;;;;;;;76.35;45.92;;;3.20;99.90;;;;;;5013980;28;20096;-51
2022/12/20 01:43:54;;;;;;;75.32;43.63;;;3.00;99.90;;;;;;5012932;28;20034;-51
2022/12/20 01:46:26;;;;;;;74.55;43.63;;;3.00;99.90;;;;;;4993834;28;20046;-51
2022/12/20 01:48:58;;;;;;;72.85;42.80;;;3.20;99.90;;;;;;4994390;28;20031;-51
2022/12/20 01:51:26;;;;;;;68.40;41.30;;;3.10;99.90;;;;;;5007254;28;20073;-52
2022/12/20 01:53:59;;;;;;;69.13;41.13;;;3.10;99.90;;;;;;5013920;28;20033;-52
2022/12/20 01:56:24;;;;;;;74.22;42.67;;;3.10;99.90;;;;;;5013522;28;20032;-51
2022/12/20 01:58:53;;;;;;;71.05;42.25;;;3.10;99.90;;;;;;5013591;28;20029;-52
2022/12/20 02:01:22;;;;;;;70.30;42.42;;;3.20;99.90;;;;;;4994980;28;20061;-52
2022/12/20 02:03:50;;;;;;;68.95;41.78;;;3.20;99.90;;;;;;5013147;28;20029;-51
2022/12/20 02:06:21;;;;;;;63.72;39.60;;;3.10;99.90;;;;;;5013626;28;20037;-52
2022/12/20 02:08:49;;;;;;;79.00;44.20;;;3.10;99.90;;;;;;5013449;28;20042;-52
2022/12/20 02:11:30;;;;;;;71.32;41.38;;;3.00;99.90;;;;;;5012768;28;20121;-52
2022/12/20 02:14:18;;;;;;;68.72;42.92;;;3.00;99.90;;;;;;5013741;28;20038;-51
2022/12/20 02:17:11;;;;;;;78.03;46.30;;;3.10;99.90;;;;;;5013156;28;20030;-52
2022/12/20 02:20:08;;;;;;;76.55;45.28;;;3.00;99.90;;;;;;5012942;28;20512;-51
2022/12/20 02:22:49;;;;;;;72.13;41.15;;;3.00;99.90;;;;;;5013376;28;20030;-52
2022/12/20 02:25:45;;;;;;;62.05;39.67;;;3.00;99.90;;;;;;5013212;28;20032;-51
2022/12/20 02:28:36;;;;;;;64.55;40.05;;;3.00;99.90;;;;;;5013435;28;20469;-51
2022/12/20 02:31:06;;;;;;;66.10;40.00;;;2.90;99.90;;;;;;5013450;28;20424;-51
2022/12/20 02:33:32;;;;;;;66.00;39.72;;;2.80;99.90;;;;;;5013214;28;20084;-52
2022/12/20 02:35:58;;;;;;;65.22;37.97;;;2.80;99.90;;;;;;5013121;28;20029;-52
2022/12/20 02:38:26;;;;;;;63.45;35.47;;;2.80;99.90;;;;;;5013188;28;20036;-52
2022/12/20 02:41:01;;;;;;;144.60;39.72;;;2.80;99.90;;;;;;5008520;28;20100;-51
2022/12/20 02:46:17;;;;;;;326.55;48.63;;;2.60;99.90;;;;;;4993065;28;20061;-51
2022/12/20 02:48:45;;;;;;;243.73;46.10;;;2.00;99.90;;;;;;4993279;28;20114;-51
2022/12/20 02:51:13;;;;;;;216.98;44.83;;;2.20;99.90;;;;;;4993344;28;20034;-51
2022/12/20 02:53:39;;;;;;;201.57;40.08;;;1.40;99.90;;;;;;4997968;28;20065;-51
2022/12/20 02:56:26;;;;;;;318.33;47.92;;;2.20;99.90;;;;;;5013001;28;20033;-51
2022/12/20 02:59:07;;;;;;;300.52;44.88;;;2.30;99.90;;;;;;5013309;28;20030;-51
2022/12/20 03:01:37;;;;;;;307.25;45.78;;;2.20;99.90;;;;;;5013361;28;20037;-51
2022/12/20 03:04:05;;;;;;;212.80;40.83;;;2.20;99.90;;;;;;5012854;28;20038;-51
2022/12/20 03:06:31;;;;;;;180.50;37.75;;;2.00;99.90;;;;;;5012766;28;20026;-51
2022/12/20 03:08:57;;;;;;;282.13;44.95;;;2.20;99.90;;;;;;5013106;28;20045;-51
2022/12/20 03:11:22;;;;;;;222.60;42.55;;;2.20;99.90;;;;;;5012949;28;20030;-51
2022/12/20 03:13:48;;;;;;;174.30;40.80;;;1.90;99.90;;;;;;5010936;28;20119;-51
2022/12/20 03:16:14;;;;;;;158.18;36.90;;;1.80;99.90;;;;;;5012941;28;20038;-51
2022/12/20 03:18:40;;;;;;;227.00;40.45;;;1.70;99.90;;;;;;5012549;28;20495;-51
2022/12/20 03:21:05;;;;;;;334.65;51.17;;;1.50;99.90;;;;;;5011090;28;20046;-51
2022/12/20 03:23:31;;;;;;;270.85;50.50;;;1.40;99.90;;;;;;5014959;28;20044;-51
2022/12/20 03:25:57;;;;;;;255.23;45.20;;;1.40;99.90;;;;;;5016300;28;20121;-51
2022/12/20 03:28:23;;;;;;;237.00;42.65;;;1.30;99.90;;;;;;5016344;28;20033;-51
2022/12/20 03:30:49;;;;;;;283.95;45.63;;;1.20;99.90;;;;;;5015980;28;20385;-51
2022/12/20 03:33:14;;;;;;;264.98;46.53;;;1.10;99.90;;;;;;5016416;28;20026;-51
2022/12/20 03:35:41;;;;;;;299.05;47.63;;;;;;;;;;5016534;28;20527;-52
2022/12/20 03:38:06;;;;;;;363.25;55.13;;;0.90;99.90;;;;;;5016242;28;20056;-51
2022/12/20 03:40:32;;;;;;;221.45;44.00;;;0.90;99.90;;;;;;5030564;28;20396;-51
2022/12/20 03:42:58;;;;;;;166.63;34.35;;;1.20;99.90;;;;;;5014521;28;20512;-51
2022/12/20 03:45:24;;;;;;;259.58;45.67;;;1.20;99.90;;;;;;5013801;28;20037;-51
2022/12/20 03:47:49;;;;;;;322.23;50.25;;;1.10;99.90;;;;;;5015696;28;20029;-51
2022/12/20 03:50:15;;;;;;;302.00;49.28;;;1.10;99.90;;;;;;5015772;28;20030;-51
2022/12/20 03:52:41;;;;;;;216.13;43.90;;;0.80;99.90;;;;;;5015915;28;20033;-52
2022/12/20 03:55:08;;;;;;;237.68;44.97;;;1.30;99.90;;;;;;5017242;28;20531;-51
2022/12/20 03:57:34;;;;;;;236.65;47.42;;;1.60;99.90;;;;;;4998792;28;20042;-51
2022/12/20 04:00:00;;;;;;;294.70;46.78;;;1.40;99.90;;;;;;5016725;28;20105;-51
2022/12/20 04:02:26;;;;;;;236.55;44.08;;;;;;;;;;5017206;28;20520;-52
2022/12/20 04:04:52;;;;;;;300.75;47.35;;;1.50;99.90;;;;;;5016464;28;20030;-51
2022/12/20 04:07:17;;;;;;;235.02;45.38;;;1.80;99.90;;;;;;5016826;28;20041;-51
2022/12/20 04:09:43;;;;;;;226.68;44.08;;;1.30;99.90;;;;;;5014703;28;20045;-51
2022/12/20 04:12:09;;;;;;;344.30;55.28;;;;;;;;;;5030056;28;20469;-52
2022/12/20 04:14:36;;;;;;;288.10;50.67;;;;;;;;;;5015713;28;20026;-52
2022/12/20 04:17:02;;;;;;;239.25;44.03;;;1.50;99.90;;;;;;5015543;28;20030;-51
2022/12/20 04:19:28;;;;;;;308.35;49.25;;;1.80;99.90;;;;;;5015231;28;20018;-51
2022/12/20 04:21:55;;;;;;;306.25;44.65;;;2.00;99.90;;;;;;5015603;28;20030;-52
2022/12/20 04:24:21;;;;;;;370.15;48.70;;;1.80;99.90;;;;;;5015443;28;20034;-51
2022/12/20 04:26:48;;;;;;;248.55;43.03;;;;;;;;;;5015214;28;20033;-51
2022/12/20 04:29:14;;;;;;;139.15;31.70;;;1.30;99.90;;;;;;5014908;28;20108;-51
2022/12/20 04:31:40;;;;;;;254.07;44.47;;;1.50;99.90;;;;;;5014925;28;20501;-51
2022/12/20 04:34:06;;;;;;;308.25;47.28;;;1.70;99.90;;;;;;5014696;28;20112;-51
2022/12/20 04:36:32;;;;;;;250.95;46.47;;;;;;;;;;5014866;28;20033;-51
2022/12/20 04:38:57;;;;;;;265.38;47.35;;;1.40;99.90;;;;;;5015301;28;20033;-51
2022/12/20 04:41:23;;;;;;;403.95;55.20;;;1.00;99.90;;;;;;5014995;28;20034;-51
2022/12/20 04:43:51;;;;;;;173.38;39.22;;;1.40;99.90;;;;;;5013605;28;20034;-51
2022/12/20 04:46:17;;;;;;;281.42;49.92;;;1.50;99.90;;;;;;5012550;28;20085;-51
2022/12/20 04:48:43;;;;;;;223.98;46.30;;;1.80;99.90;;;;;;5014546;28;20034;-51
2022/12/20 04:51:09;;;;;;;297.00;48.05;;;1.50;99.90;;;;;;5014854;28;20378;-51
2022/12/20 04:53:46;;;;;;;377.02;56.10;;;1.80;99.90;;;;;;4996532;28;20034;-51
2022/12/20 04:56:15;;;;;;;337.88;54.42;;;1.60;99.90;;;;;;5012696;28;20049;-51
2022/12/20 04:58:41;;;;;;;282.77;47.63;;;2.30;99.90;;;;;;5014606;28;20034;-51
2022/12/20 05:01:07;;;;;;;225.00;45.10;;;1.80;99.90;;;;;;5014297;28;20083;-51
2022/12/20 05:03:34;;;;;;;203.68;42.05;;;1.90;99.90;;;;;;5014623;28;20469;-51
2022/12/20 05:05:59;;;;;;;394.30;57.05;;;2.00;99.90;;;;;;5014525;28;20030;-51
2022/12/20 05:08:25;;;;;;;199.05;44.35;;;2.30;99.90;;;;;;5014106;28;20388;-52
2022/12/20 05:10:51;;;;;;;309.42;49.55;;;2.30;99.90;;;;;;5010350;28;20034;-51
2022/12/20 05:13:17;;;;;;;213.65;44.85;;;2.70;99.90;;;;;;5011451;28;20489;-51
2022/12/20 05:15:43;;;;;;;179.48;46.45;;;2.50;99.90;;;;;;5025312;28;20460;-51
2022/12/20 05:18:09;;;;;;;312.58;47.35;;;2.30;99.90;;;;;;5012646;28;20077;-51
2022/12/20 05:20:35;;;;;;;339.00;48.83;;;2.30;99.90;;;;;;5014088;28;20022;-52
2022/12/20 05:28:32;;;;;;;182.93;41.65;;;2.70;99.90;;;;;;5017191;28;20045;-52
2022/12/20 05:30:58;;;;;;;340.13;51.17;;;2.30;99.90;;;;;;5014572;28;20369;-52
2022/12/20 05:33:25;;;;;;;173.65;44.85;;;2.60;99.90;;;;;;5017474;28;20040;-51
2022/12/20 05:35:50;;;;;;;448.58;55.90;;;2.40;99.90;;;;;;5014188;28;20026;-52
2022/12/20 05:38:16;;;;;;;216.80;46.05;;;2.40;99.90;;;;;;5007998;28;20027;-51
2022/12/20 05:40:42;;;;;;;420.27;54.65;;;2.40;99.90;;;;;;5000098;28;20029;-51
2022/12/20 05:43:08;;;;;;;207.23;44.05;;;2.60;99.90;;;;;;5010434;28;20053;-51
2022/12/20 05:45:34;;;;;;;219.85;48.60;;;2.50;99.90;;;;;;5011765;28;20060;-51
2022/12/20 05:48:00;;;;;;;357.48;57.33;;;2.60;99.90;;;;;;5012487;28;20030;-52
2022/12/20 05:50:26;;;;;;;331.42;51.03;;;2.80;99.90;;;;;;5011478;28;20109;-52
2022/12/20 05:52:51;;;;;;;265.30;50.40;;;3.10;99.90;;;;;;5022517;28;20041;-51
2022/12/20 05:55:17;;;;;;;199.13;45.03;;;3.00;99.90;;;;;;5009307;28;20030;-48
2022/12/20 05:57:43;;;;;;;352.33;52.83;;;2.90;99.90;;;;;;5025921;28;20402;-48
2022/12/20 06:00:10;;;;;;;345.10;48.58;;;3.00;99.90;;;;;;5007354;28;20022;-53
2022/12/20 06:02:36;;;;;;;256.48;46.17;;;3.20;99.90;;;;;;5012087;28;20041;-55
2022/12/20 06:05:02;;;;;;;292.33;47.60;;;3.20;99.90;;;;;;5012637;28;20030;-54
2022/12/20 06:07:28;;;;;;;248.75;54.33;;;3.10;99.90;;;;;;5012299;28;20073;-53
2022/12/20 06:09:55;;;;;;;382.30;56.08;;;3.10;99.90;;;;;;5010117;28;20070;-53
2022/12/20 06:12:21;;;;;;;306.98;49.10;;;3.20;99.90;;;;;;5006869;28;20073;-52
2022/12/20 06:14:47;;;;;;;235.65;47.05;;;3.10;99.90;;;;;;5010494;28;20048;-57
2022/12/20 06:17:13;;;;;;;163.30;42.00;;;3.10;99.90;;;;;;4991882;28;20035;-46
2022/12/20 06:19:40;;;;;;;320.30;53.10;;;3.10;99.90;;;;;;4958147;28;20133;-48
2022/12/20 06:22:07;;;;;;;294.02;48.95;;;2.70;99.90;;;;;;5007348;28;20030;-53
2022/12/20 06:24:34;;;;;;;265.25;50.38;;;2.80;99.90;;;;;;5010446;28;20046;-48
2022/12/20 06:27:01;;;;;;;269.60;48.40;;;2.90;99.90;;;;;;5005938;28;20034;-48
2022/12/20 06:29:26;;;;;;;262.05;49.10;;;2.80;99.90;;;;;;5008783;28;20084;-54
2022/12/20 06:31:52;;;;;;;230.52;45.55;;;2.90;99.90;;;;;;5009927;28;20065;-55
2022/12/20 06:34:19;;;;;;;337.95;47.25;;;3.00;99.90;;;;;;4994385;28;20034;-54
2022/12/20 06:36:45;;;;;;;275.88;46.45;;;;;;;;;;5010757;28;20048;-54
2022/12/20 06:39:11;;;;;;;245.60;46.45;;;3.10;99.90;;;;;;5010928;28;20022;-54
2022/12/20 06:41:39;;;;;;;180.65;41.40;;;3.20;99.90;;;;;;5012451;28;20045;-55
2022/12/20 06:44:05;;;;;;;267.15;49.53;;;3.30;99.90;;;;;;5013285;28;20041;-54
2022/12/20 06:46:31;;;;;;;327.17;47.13;;;3.30;99.90;;;;;;5012875;28;20054;-54
2022/12/20 06:48:56;;;;;;;322.58;48.00;;;3.30;99.90;;;;;;5013143;28;20500;-54
2022/12/20 06:51:22;;;;;;;177.05;43.92;;;3.20;99.90;;;;;;5011749;28;20512;-54
2022/12/20 06:53:48;;;;;;;163.52;41.22;;;3.40;99.90;;;;;;5012790;28;20044;-54
2022/12/20 06:56:14;;;;;;;260.80;48.33;;;3.20;99.90;;;;;;5013164;28;20161;-54
2022/12/20 06:58:40;;;;;;;121.65;38.97;;;3.30;99.90;;;;;;5017203;28;20030;-54
2022/12/20 07:01:06;;;;;;;193.43;43.55;;;2.80;99.90;;;;;;5031322;28;20049;-53
2022/12/20 07:03:31;;;;;;;226.48;46.83;;;2.60;99.90;;;;;;5016674;28;20088;-54
2022/12/20 07:05:57;;;;;;;169.35;41.92;;;2.80;99.90;;;;;;5016933;28;20034;-53
2022/12/20 07:08:24;;;;;;;109.90;37.78;;;2.90;99.90;;;;;;5031268;28;20054;-53
2022/12/20 07:10:51;;;;;;;189.65;43.10;;;2.70;99.90;;;;;;5016741;28;20050;-54
2022/12/20 07:13:18;;;;;;;200.25;46.42;;;2.70;99.90;;;;;;5016466;28;20112;-54
2022/12/20 07:15:44;;;;;;;164.85;48.45;;;2.90;99.90;;;;;;5016397;28;20021;-54
2022/12/20 07:18:10;;;;;;;133.90;42.53;;;3.10;99.90;;;;;;5016440;28;20022;-53
2022/12/20 07:20:36;;;;;;;148.63;44.03;;;3.20;99.90;;;;;;5016786;28;20105;-54
2022/12/20 07:23:02;;;;;;;156.32;42.20;;;3.30;99.90;;;;;;5016489;28;20034;-53
2022/12/20 07:25:28;;;;;;;188.15;44.33;;;3.20;99.90;;;;;;5016360;28;20065;-53
2022/12/20 07:27:54;;;;;;;178.70;47.03;;;3.10;99.90;;;;;;5016033;28;20088;-54
2022/12/20 07:30:20;;;;;;;148.23;42.97;;;3.20;99.90;;;;;;5030951;28;20038;-54
2022/12/20 07:32:46;;;;;;;144.43;42.63;;;3.40;99.90;;;;;;5016210;28;20037;-54
2022/12/20 07:35:13;;;;;;;124.68;40.17;;;3.60;99.90;;;;;;5016079;28;20382;-53
2022/12/20 07:37:40;;;;;;;118.95;39.50;;;3.30;99.90;;;;;;5016025;28;20022;-54
2022/12/20 07:40:07;;;;;;;125.47;41.00;;;3.00;99.90;;;;;;5016197;28;20053;-54
2022/12/20 07:42:33;;;;;;;98.32;37.78;;;3.00;99.90;;;;;;5016223;28;20385;-54
2022/12/20 07:44:59;;;;;;;120.93;39.72;;;2.80;99.90;;;;;;5015597;28;20049;-53
2022/12/20 07:47:25;;;;;;;82.68;36.15;;;2.80;99.90;;;;;;5015866;28;20507;-53
2022/12/20 07:49:50;;;;;;;102.88;39.08;;;2.50;99.90;;;;;;4997853;28;20041;-53
2022/12/20 07:52:19;;;;;;;117.68;45.88;;;2.70;99.90;;;;;;5030487;28;20062;-53
2022/12/20 07:54:58;;;;;;;145.40;41.70;;;2.80;99.90;;;;;;5015644;28;20116;-53
2022/12/20 07:57:40;;;;;;;209.38;42.45;;;3.10;99.90;;;;;;5015860;28;20037;-54
2022/12/20 08:00:08;;;;;;;121.78;37.63;;;3.40;99.90;;;;;;5016427;28;20045;-54
2022/12/20 08:03:11;;;;;;;169.40;45.22;;;3.60;99.90;;;;;;5014833;28;20034;-54
2022/12/20 08:05:43;;;;;;;135.20;41.90;;;3.70;99.90;;;;;;5033031;28;20038;-54
2022/12/20 08:08:08;;;;;;;106.90;40.37;;;3.90;99.90;;;;;;5032558;28;20152;-53
2022/12/20 08:10:37;;;;;;;151.55;41.20;;;3.90;99.90;;;;;;5032942;28;20041;-53
2022/12/20 08:13:04;;;;;;;149.65;45.55;;;4.10;99.90;;;;;;5033109;28;20053;-54
2022/12/20 08:15:31;;;;;;;168.70;44.95;;;;;;;;;;5033102;28;20033;-54
2022/12/20 08:17:56;;;;;;;136.73;48.10;;;4.10;99.90;;;;;;5000194;28;20037;-54
2022/12/20 08:20:22;;;;;;;108.75;33.28;;;4.20;99.90;;;;;;5000218;28;20489;-54
2022/12/20 08:22:48;;;;;;;99.03;38.72;;;3.40;99.90;;;;;;5000000;28;20037;-54
2022/12/20 08:25:14;;;;;;;98.60;34.05;;;2.90;99.90;;;;;;5032901;28;20079;-54
2022/12/20 08:27:39;;;;;;;111.10;37.03;;;2.30;99.90;;;;;;4999807;28;20417;-54
2022/12/20 08:30:07;;;;;;;121.07;36.92;;;2.10;99.90;;;;;;5032767;28;20049;-53
2022/12/20 08:32:33;;;;;;;108.20;34.22;;;2.40;99.90;;;;;;5032820;28;20424;-53
2022/12/20 08:34:59;;;;;;;131.10;37.33;;;2.40;99.90;;;;;;5016211;28;20037;-54
2022/12/20 08:37:25;;;;;;;151.07;38.50;;;1.90;99.90;;;;;;5032621;28;20467;-54
2022/12/20 08:39:51;;;;;;;96.38;41.35;;;;;;;;;;5031552;28;20029;-52
2022/12/20 08:42:16;;;;;;;110.32;38.83;;;2.50;99.90;;;;;;5017878;28;20034;-54
2022/12/20 08:44:43;;;;;;;189.65;43.33;;;;;;;;;;5013509;28;20056;-53
2022/12/20 08:47:09;;;;;;;128.85;44.85;;;2.90;99.90;;;;;;5013607;28;20517;-53
2022/12/20 08:49:35;;;;;;;116.55;48.15;;;;;;;;;;5012737;28;20048;-52
2022/12/20 08:52:01;;;;;;;87.20;40.28;;;3.20;99.90;;;;;;5012490;28;20037;-52
2022/12/20 08:54:27;;;;;;;144.73;49.80;;;3.60;99.90;;;;;;5027254;28;20046;-52
2022/12/20 08:56:53;;;;;;;119.38;43.40;;;3.50;99.90;;;;;;5012602;28;20373;-52
2022/12/20 08:59:18;;;;;;;104.40;38.65;;;3.80;99.90;;;;;;5014588;28;20038;-52
2022/12/20 09:01:44;;;;;;;85.10;35.15;;;4.00;99.90;;;;;;5013645;28;20041;-52
2022/12/20 09:04:10;;;;;;;120.25;40.75;;;4.10;99.90;;;;;;5014183;28;20030;-52
2022/12/20 09:06:37;;;;;;;103.28;38.63;;;4.00;99.90;;;;;;5013127;28;20030;-52
2022/12/20 09:09:03;;;;;;;81.82;37.45;;;4.30;99.90;;;;;;5013052;28;20068;-52
2022/12/20 09:11:29;;;;;;;156.35;41.38;;;4.40;99.90;;;;;;5013152;28;20022;-51
2022/12/20 09:13:57;;;;;;;105.93;43.17;;;4.50;99.90;;;;;;5010205;28;20072;-52
2022/12/20 09:16:26;;;;;;;149.60;43.30;;;4.20;99.90;;;;;;4993209;28;20046;-52
2022/12/20 09:18:54;;;;;;;101.55;40.83;;;4.50;99.90;;;;;;5010715;28;20042;-52
2022/12/20 09:21:21;;;;;;;156.18;41.33;;;4.30;99.90;;;;;;5010799;28;20036;-52
2022/12/20 09:23:49;;;;;;;119.55;41.53;;;4.50;99.90;;;;;;5008787;28;20034;-51
2022/12/20 09:26:16;;;;;;;117.55;40.90;;;4.30;99.90;;;;;;5010445;28;20049;-52
2022/12/20 09:28:43;;;;;;;90.07;38.10;;;4.00;99.90;;;;;;5007583;28;20037;-52
2022/12/20 09:31:14;;;;;;;82.93;38.42;;;3.90;99.90;;;;;;5010249;28;20101;-51
2022/12/20 09:33:40;;;;;;;115.65;39.95;;;4.40;99.90;;;;;;5010529;28;20026;-52
2022/12/20 09:36:10;;;;;;;99.40;38.72;;;4.30;99.90;;;;;;5010423;28;20056;-52
2022/12/20 09:38:35;;;;;;;102.10;38.42;;;4.40;99.90;;;;;;4994349;28;20124;-53
2022/12/20 09:41:03;;;;;;;77.45;34.90;;;4.80;99.90;;;;;;5010340;28;20565;-52
2022/12/20 09:43:30;;;;;;;82.40;37.65;;;4.70;99.90;;;;;;5010474;28;20049;-52
2022/12/20 09:45:59;;;;;;;75.82;39.30;;;4.70;99.90;;;;;;5009822;28;20060;-51
2022/12/20 09:48:29;;;;;;;84.03;38.83;;;4.90;99.90;;;;;;4994223;28;20136;-52
2022/12/20 09:51:22;;;;;;;72.22;37.28;;;5.10;99.90;;;;;;4997372;28;20056;-51
2022/12/20 09:54:01;;;;;;;76.18;34.35;;;5.30;99.90;;;;;;5006219;28;20050;-53
2022/12/20 09:56:29;;;;;;;64.95;32.13;;;5.20;99.90;;;;;;5010201;28;20024;-51
2022/12/20 09:59:10;;;;;;;73.15;37.35;;;4.90;99.90;;;;;;5011698;28;20165;-52
2022/12/20 10:01:36;;;;;;;79.25;36.42;;;5.20;99.90;;;;;;5009495;28;20022;-52
2022/12/20 10:04:14;;;;;;;69.13;35.17;;;5.40;99.90;;;;;;5009396;28;20557;-52
2022/12/20 10:06:49;;;;;;;73.13;33.83;;;5.30;99.90;;;;;;5004647;28;20030;-64
2022/12/20 10:09:18;;;;;;;92.18;35.92;;;5.50;99.90;;;;;;5009280;28;20100;-52
2022/12/20 10:12:03;;;;;;;89.15;42.75;;;5.40;99.90;;;;;;5012325;28;20080;-56
2022/12/20 10:15:11;;;;;;;84.30;42.85;;;5.40;99.90;;;;;;4960140;28;20089;-53
2022/12/20 10:18:09;;;;;;;91.13;43.95;;;5.50;99.90;;;;;;5009004;28;20026;-53
2022/12/20 10:20:49;;;;;;;69.90;36.53;;;5.50;99.90;;;;;;5009890;28;20468;-47
2022/12/20 10:23:42;;;;;;;90.78;36.40;;;4.80;99.90;;;;;;5009745;28;20042;-52
2022/12/20 10:26:10;;;;;;;88.82;39.20;;;4.90;99.90;;;;;;5007113;28;20084;-47
2022/12/20 10:28:36;;;;;;;99.00;42.40;;;5.00;99.90;;;;;;5008423;28;20133;-57
2022/12/20 10:31:06;;;;;;;132.77;48.08;;;5.10;99.90;;;;;;5009764;28;20026;-52
2022/12/20 10:33:33;;;;;;;77.88;40.65;;;4.90;99.90;;;;;;4968285;28;20049;-53
2022/12/20 10:36:37;;;;;;;82.95;36.13;;;5.20;99.90;;;;;;4998546;28;20046;-51
2022/12/20 10:39:08;;;;;;;91.00;45.28;;;5.10;99.90;;;;;;5013520;28;20113;-50
2022/12/20 10:41:39;;;;;;;84.85;43.22;;;5.20;99.90;;;;;;5008903;28;20116;-51
2022/12/20 10:44:16;;;;;;;79.15;40.00;;;5.50;99.90;;;;;;5009157;28;20046;-51
2022/12/20 10:46:45;;;;;;;71.10;37.50;;;5.50;99.90;;;;;;5023170;28;20401;-50
2022/12/20 10:49:27;;;;;;;60.47;34.67;;;5.30;99.90;;;;;;5015202;28;20045;-50
2022/12/20 10:52:03;;;;;;;67.68;38.55;;;5.30;99.90;;;;;;5018442;28;20436;-50
2022/12/20 10:54:32;;;;;;;74.22;36.97;;;5.70;99.90;;;;;;5017974;28;20037;-50
2022/12/20 10:57:02;;;;;;;67.70;36.63;;;5.00;99.90;;;;;;5016799;28;20045;-50
2022/12/20 10:59:38;;;;;;;67.90;37.13;;;6.10;99.90;;;;;;5010686;28;20038;-46
2022/12/20 11:02:26;;;;;;;57.30;33.17;;;5.70;99.90;;;;;;4994095;28;20049;-50
2022/12/20 11:05:10;;;;;;;65.05;34.53;;;5.60;99.90;;;;;;5002384;28;20030;-48
2022/12/20 11:07:51;;;;;;;66.70;37.63;;;5.60;99.90;;;;;;4993312;28;20080;-57
2022/12/20 11:10:22;;;;;;;72.22;39.75;;;5.60;99.90;;;;;;5008327;28;20588;-47
2022/12/20 11:12:56;;;;;;;73.80;38.28;;;6.00;99.90;;;;;;5013157;28;20038;-47
2022/12/20 11:15:24;;;;;;;60.30;32.60;;;5.70;99.90;;;;;;5012939;28;20064;-51
2022/12/20 11:17:55;;;;;;;75.72;34.88;;;5.00;99.90;;;;;;5028980;28;20095;-48
2022/12/20 11:20:39;;;;;;;60.50;32.80;;;4.20;99.90;;;;;;4995365;28;20037;-45
2022/12/20 11:23:17;;;;;;;81.78;40.45;;;4.30;99.90;;;;;;4998548;28;20042;-50
2022/12/20 11:25:46;;;;;;;76.60;40.63;;;5.00;99.90;;;;;;5013370;28;21067;-52
2022/12/20 11:28:18;;;;;;;86.53;41.67;;;5.30;99.90;;;;;;5014933;28;20080;-56
2022/12/20 11:31:00;;;;;;;;;;;5.60;99.90;;;;;;5014911;28;20046;-52
2022/12/20 11:33:35;;;;;;;75.22;39.35;;;;;;;;;;4999310;28;19909;-55
2022/12/20 11:36:05;;;;;;;78.47;42.88;;;;;;;;;;5013225;28;20026;-53
2022/12/20 11:38:49;;;;;;;74.60;37.80;;;6.20;99.90;;;;;;5014952;28;20091;-51
2022/12/20 11:41:29;;;;;;;71.82;37.35;;;6.10;99.90;;;;;;5014125;28;20041;-54
2022/12/20 11:44:20;;;;;;;74.85;38.42;;;6.30;99.90;;;;;;5013986;28;20041;-56
2022/12/20 11:47:06;;;;;;;67.38;36.10;;;6.40;99.90;;;;;;5013610;28;20057;-56
2022/12/20 11:50:02;;;;;;;78.97;40.53;;;6.20;99.90;;;;;;5014595;28;20152;-59
2022/12/20 11:52:46;;;;;;;66.43;37.33;;;6.50;99.90;;;;;;5013877;28;20038;-50
2022/12/20 11:55:12;;;;;;;72.38;37.88;;;6.50;99.90;;;;;;5011951;28;20037;-52
2022/12/20 11:57:53;;;;;;;74.35;39.58;;;6.60;99.90;;;;;;5015503;28;20390;-49
2022/12/20 12:00:21;;;;;;;76.95;39.25;;;6.80;99.90;;;;;;5013565;28;20069;-48
2022/12/20 12:03:03;;;;;;;77.13;40.10;;;7.70;99.90;;;;;;5006547;28;20037;-56
2022/12/20 12:05:43;;;;;;;72.25;39.88;;;8.00;99.90;;;;;;5014190;28;20104;-59
2022/12/20 12:08:26;;;;;;;64.97;36.78;;;8.20;99.90;;;;;;5013166;28;20489;-50
2022/12/20 12:11:42;;;;;;;72.50;40.08;;;8.60;99.90;;;;;;5010888;28;20085;-54
2022/12/20 12:14:33;;;;;;;74.72;39.38;;;8.70;99.90;;;;;;4990086;28;20049;-59
2022/12/20 12:17:08;;;;;;;71.22;36.25;;;8.40;99.90;;;;;;4991970;28;20040;-59
2022/12/20 12:19:40;;;;;;;69.07;36.22;;;7.40;99.90;;;;;;4983110;28;20088;-56
2022/12/20 12:22:14;;;;;;;172.13;106.30;;;6.90;99.90;;;;;;4992553;28;20528;-56
2022/12/20 12:24:50;;;;;;;56.45;32.80;;;7.30;99.90;;;;;;4993168;28;20545;-49
2022/12/20 12:27:27;;;;;;;78.85;44.38;;;8.00;99.90;;;;;;4993351;28;20038;-48
2022/12/20 12:29:57;;;;;;;59.42;32.75;;;8.40;99.90;;;;;;4993136;28;20076;-49
2022/12/20 12:32:35;;;;;;;65.53;36.53;;;8.70;99.90;;;;;;4988062;28;20035;-53
2022/12/20 12:35:29;;;;;;;64.68;37.30;;;8.60;99.90;;;;;;4992050;28;20038;-53
2022/12/20 12:37:55;;;;;;;72.97;38.63;;;8.90;99.90;;;;;;4989596;28;20595;-51
2022/12/20 12:40:40;;;;;;;62.45;34.03;;;8.90;99.90;;;;;;4983226;28;20034;-51
2022/12/20 12:43:08;;;;;;;61.78;36.00;;;;;;;;;;4991250;28;20034;-52
2022/12/20 12:45:46;;;;;;;63.50;35.67;;;9.20;99.90;;;;;;4992965;28;20076;-51
2022/12/20 12:48:18;;;;;;;539.38;305.60;;;9.30;99.90;;;;;;4993086;28;20449;-51
2022/12/20 12:50:48;;;;;;;90.30;51.75;;;9.30;99.90;;;;;;5008675;28;20432;-52
2022/12/20 12:53:14;;;;;;;63.53;34.75;;;;;;;;;;5045984;28;20045;-51
2022/12/20 12:55:47;;;;;;;65.15;34.92;;;8.10;99.90;;;;;;5014357;28;20026;-51
2022/12/20 12:58:33;;;;;;;66.53;38.33;;;8.00;99.90;;;;;;5014927;28;20513;-52